Pagrindinis puslapis
METAR-TAF:

METAR-TAF

Oro uostai :

Lábrea, Amazonė, Brazilija

platuma: 07-15-01S, ilguma: 064-47-02W, Aukštis: 58 m

Dabartinis oras

Ataskaita buvo paskelbta 52 minutes, ne 13:00 UTC
Vėjas 4 kt iš Pietvakarių
Temperatūra 22°C
Drėgmė 88%
Slėgis 1014 hPa
Matomumas 10 km arba daugiau
Su prošvaistėmis ne aukštis 2000 ft
Su prošvaistėmis ne aukštis 6900 ft

METAR: SBLB 071300Z AUTO 23004KT 9999 BKN020 BKN069 22/20 Q1014 W25/S4

Laikas: 09:52 (13:52 UTC)


TAF: trūkstamas

Orai ataskaitas ir orų prognozės (METAR, TAF).

turimą stotys yra geltonos ir raudonos taškus žemėlapyje.

Perkelti pele per norėdami pamatyti stoties vardą.

Tada spustelėkite, norėdami matyti oro stebėjimo ir prognozės.

Norėdami pakeisti žemėlapį: spustelėkite ant žalios mygtukų su juodo kryžiaus žemyn,; žalią mygtuką su brūkšneliu, jei norite nutolinti; arba žalių rodyklių gretimoms žemėlapius.


METAR-TAF: